createdAt,value
2023-09-08T00:00:05.932Z,15.50
2023-09-08T00:05:12.865Z,15.58
2023-09-08T00:10:27.098Z,15.52
2023-09-08T00:15:32.043Z,15.40
2023-09-08T00:20:40.195Z,15.36
2023-09-08T00:25:48.708Z,15.33
2023-09-08T00:30:56.067Z,15.24
2023-09-08T00:36:07.677Z,15.22
2023-09-08T00:41:12.661Z,15.12
2023-09-08T00:46:17.245Z,15.09
2023-09-08T00:51:22.494Z,15.02
2023-09-08T00:56:26.961Z,15.19
2023-09-08T01:01:34.499Z,15.09
2023-09-08T01:06:40.605Z,14.97
2023-09-08T01:11:45.104Z,14.87
2023-09-08T01:16:53.524Z,15.08
2023-09-08T01:22:00.429Z,15.03
2023-09-08T01:27:05.210Z,14.86
2023-09-08T01:32:10.898Z,14.81
2023-09-08T01:37:14.619Z,14.80
2023-09-08T01:47:43.180Z,14.75
2023-09-08T01:52:50.573Z,14.67
2023-09-08T01:57:53.337Z,14.61
2023-09-08T02:03:10.308Z,14.50
2023-09-08T02:08:15.817Z,14.64
2023-09-08T02:13:22.010Z,14.65
2023-09-08T02:18:30.695Z,14.56
2023-09-08T02:23:35.283Z,14.48
2023-09-08T02:28:42.509Z,14.32
2023-09-08T02:33:45.937Z,14.23
2023-09-08T02:38:50.933Z,14.21
2023-09-08T02:43:56.806Z,14.41
2023-09-08T02:49:03.244Z,14.25
2023-09-08T02:54:09.514Z,14.10
2023-09-08T02:59:15.345Z,14.10
2023-09-08T03:04:21.732Z,14.10
2023-09-08T03:09:31.127Z,14.13
2023-09-08T03:14:39.939Z,14.00
2023-09-08T03:20:11.390Z,13.81
2023-09-08T03:25:14.796Z,13.66
2023-09-08T03:30:23.962Z,13.62
2023-09-08T03:35:33.256Z,13.69
2023-09-08T03:40:37.186Z,13.74
2023-09-08T03:51:10.439Z,13.70
2023-09-08T03:56:16.717Z,13.64
2023-09-08T04:01:22.156Z,13.55
2023-09-08T04:06:27.379Z,13.55
2023-09-08T04:11:30.469Z,13.51
2023-09-08T04:16:35.340Z,13.39
2023-09-08T04:21:41.979Z,13.32
2023-09-08T04:32:03.359Z,13.36
2023-09-08T04:37:10.943Z,13.30
2023-09-08T04:42:14.829Z,13.24
2023-09-08T04:47:19.613Z,13.23
2023-09-08T04:52:26.394Z,13.23
2023-09-08T04:57:32.097Z,13.38
2023-09-08T05:02:38.728Z,13.53
2023-09-08T05:07:46.812Z,13.72
2023-09-08T05:12:51.507Z,13.85
2023-09-08T05:18:00.932Z,14.04
2023-09-08T05:23:04.370Z,14.36
2023-09-08T05:28:10.106Z,14.53
2023-09-08T05:33:15.536Z,15.10
2023-09-08T05:38:24.257Z,15.25
2023-09-08T05:43:27.526Z,15.65
2023-09-08T05:48:32.062Z,15.66
2023-09-08T05:53:40.746Z,15.99
2023-09-08T05:58:48.367Z,15.99
2023-09-08T06:04:05.043Z,16.28
2023-09-08T06:09:17.445Z,16.41
2023-09-08T06:14:35.200Z,16.79
2023-09-08T06:19:40.289Z,16.98
2023-09-08T06:24:52.487Z,17.06
2023-09-08T06:30:03.268Z,17.37
2023-09-08T06:35:13.423Z,17.55
2023-09-08T06:40:17.148Z,17.92
2023-09-08T06:45:22.884Z,18.06
2023-09-08T06:50:28.159Z,18.42
2023-09-08T06:55:40.941Z,18.48
2023-09-08T07:00:47.030Z,18.62
2023-09-08T07:05:50.523Z,18.79
2023-09-08T07:10:55.111Z,18.92
2023-09-08T07:15:59.801Z,19.19
2023-09-08T07:21:06.109Z,19.32
2023-09-08T07:26:16.212Z,19.73
2023-09-08T07:31:34.695Z,19.89
2023-09-08T07:36:44.478Z,20.09
2023-09-08T07:41:50.328Z,20.14
2023-09-08T07:46:54.334Z,20.13
2023-09-08T07:51:59.387Z,20.52
2023-09-08T07:57:09.328Z,20.24
2023-09-08T08:02:14.552Z,20.44
2023-09-08T08:07:20.334Z,21.03
2023-09-08T08:12:27.776Z,21.30
2023-09-08T08:17:34.379Z,21.19
2023-09-08T08:22:38.438Z,21.29
2023-09-08T08:27:43.697Z,21.88
2023-09-08T08:32:52.472Z,21.80
2023-09-08T08:38:11.698Z,22.00
2023-09-08T08:43:18.730Z,22.33
2023-09-08T08:48:30.789Z,22.52
2023-09-08T08:53:35.542Z,22.66
2023-09-08T08:58:39.033Z,22.65
2023-09-08T09:03:48.261Z,22.84
2023-09-08T09:08:53.733Z,22.69
2023-09-08T09:14:10.465Z,22.94
2023-09-08T09:19:14.223Z,23.12
2023-09-08T09:24:24.687Z,23.32
2023-09-08T09:29:36.419Z,23.69
2023-09-08T09:34:43.582Z,23.37
2023-09-08T09:39:49.827Z,23.17
2023-09-08T09:44:58.724Z,23.37
2023-09-08T09:50:20.809Z,23.39
2023-09-08T09:55:31.974Z,23.81
2023-09-08T10:00:40.553Z,23.76
2023-09-08T10:05:55.857Z,23.82
2023-09-08T10:11:04.841Z,23.92
2023-09-08T10:16:11.313Z,24.19
2023-09-08T10:21:16.146Z,24.33
2023-09-08T10:26:23.369Z,24.15
2023-09-08T10:31:30.384Z,24.40
2023-09-08T10:36:51.201Z,24.17
2023-09-08T10:41:57.733Z,24.79
2023-09-08T10:47:02.430Z,24.87
2023-09-08T10:52:11.135Z,24.83
2023-09-08T10:57:14.117Z,25.05
2023-09-08T11:02:28.939Z,25.05
2023-09-08T11:07:41.106Z,24.92
2023-09-08T11:12:47.262Z,25.36
2023-09-08T11:17:53.475Z,25.32
2023-09-08T11:22:58.522Z,25.59
2023-09-08T11:28:04.850Z,25.57
2023-09-08T11:33:09.748Z,25.47
2023-09-08T11:38:21.046Z,25.45
2023-09-08T11:43:25.667Z,25.52
2023-09-08T11:48:31.697Z,25.54
2023-09-08T11:53:44.908Z,25.51
2023-09-08T11:59:10.320Z,25.78
2023-09-08T12:04:16.359Z,25.91
2023-09-08T12:09:20.033Z,26.28
2023-09-08T12:14:24.018Z,26.48
2023-09-08T12:19:28.804Z,26.43
2023-09-08T12:24:35.171Z,26.48
2023-09-08T12:29:43.605Z,26.62
2023-09-08T12:34:50.073Z,26.51
2023-09-08T12:39:59.106Z,26.35
2023-09-08T12:45:03.998Z,26.56
2023-09-08T12:50:10.687Z,26.71
2023-09-08T12:55:16.945Z,26.68
2023-09-08T13:00:23.291Z,26.60
2023-09-08T13:05:27.762Z,26.84
2023-09-08T13:10:31.250Z,27.01
2023-09-08T13:15:36.941Z,27.13
2023-09-08T13:20:49.955Z,27.13
2023-09-08T13:25:53.679Z,27.03
2023-09-08T13:30:58.431Z,26.87
2023-09-08T13:36:03.478Z,26.65
2023-09-08T13:41:08.425Z,26.69
2023-09-08T13:46:20.373Z,26.73
2023-09-08T13:51:28.556Z,26.63
2023-09-08T13:56:34.447Z,26.81
2023-09-08T14:06:50.205Z,26.79
2023-09-08T14:17:20.701Z,26.62
2023-09-08T14:22:25.775Z,26.48
2023-09-08T14:27:30.326Z,26.54
2023-09-08T14:32:34.265Z,26.58
2023-09-08T14:37:42.128Z,26.64
2023-09-08T14:42:49.448Z,26.76
2023-09-08T14:47:53.914Z,26.69
2023-09-08T14:53:12.417Z,26.54
2023-09-08T14:58:35.302Z,26.36
2023-09-08T15:03:42.682Z,26.32
2023-09-08T15:08:48.620Z,26.29
2023-09-08T15:13:52.865Z,26.00
2023-09-08T15:19:11.875Z,25.85
2023-09-08T15:24:15.492Z,25.83
2023-09-08T15:29:21.774Z,25.78
2023-09-08T15:34:30.100Z,25.73
2023-09-08T15:44:51.389Z,25.60
2023-09-08T15:49:56.926Z,25.47
2023-09-08T15:55:00.871Z,25.36
2023-09-08T16:00:10.850Z,25.28
2023-09-08T16:05:16.348Z,25.21
2023-09-08T16:10:20.890Z,25.18
2023-09-08T16:15:24.264Z,25.06
2023-09-08T16:20:27.458Z,25.01
2023-09-08T16:25:33.031Z,24.91
2023-09-08T16:30:44.337Z,24.82
2023-09-08T16:35:48.240Z,24.73
2023-09-08T16:40:53.399Z,24.69
2023-09-08T16:45:59.391Z,24.54
2023-09-08T16:51:08.974Z,24.49
2023-09-08T16:56:18.050Z,24.36
2023-09-08T17:01:22.133Z,24.22
2023-09-08T17:06:26.433Z,24.14
2023-09-08T17:11:30.308Z,24.00
2023-09-08T17:16:36.471Z,23.87
2023-09-08T17:21:39.773Z,23.67
2023-09-08T17:26:43.032Z,23.52
2023-09-08T17:31:53.552Z,23.35
2023-09-08T17:42:14.803Z,23.03
2023-09-08T17:47:18.798Z,22.89
2023-09-08T17:52:23.981Z,22.79
2023-09-08T17:57:27.465Z,22.62
2023-09-08T18:02:30.337Z,22.31
2023-09-08T18:07:52.855Z,22.18
2023-09-08T18:12:55.990Z,22.09
2023-09-08T18:17:59.440Z,21.89
2023-09-08T18:23:04.463Z,21.81
2023-09-08T18:28:09.367Z,21.76
2023-09-08T18:33:12.540Z,21.61
2023-09-08T18:38:17.632Z,21.47
2023-09-08T18:43:27.715Z,21.42
2023-09-08T18:48:39.219Z,21.28
2023-09-08T18:53:48.086Z,21.12
2023-09-08T18:59:01.784Z,20.89
2023-09-08T19:04:25.812Z,20.80
2023-09-08T19:09:30.030Z,20.65
2023-09-08T19:14:34.481Z,20.71
2023-09-08T19:19:40.687Z,20.42
2023-09-08T19:24:47.677Z,20.38
2023-09-08T19:29:58.415Z,20.19
2023-09-08T19:35:02.190Z,20.02
2023-09-08T19:40:05.250Z,19.93
2023-09-08T19:45:10.469Z,19.90
2023-09-08T19:50:18.397Z,19.87
2023-09-08T19:55:23.159Z,19.84
2023-09-08T20:00:29.581Z,19.79
2023-09-08T20:05:34.398Z,19.67
2023-09-08T20:10:44.195Z,19.52
2023-09-08T20:16:00.947Z,19.42
2023-09-08T20:21:10.754Z,19.43
2023-09-08T20:26:15.453Z,19.32
2023-09-08T20:31:20.107Z,19.23
2023-09-08T20:36:25.861Z,19.18
2023-09-08T20:41:31.965Z,19.07
2023-09-08T20:46:36.807Z,18.99
2023-09-08T20:51:53.789Z,19.08
2023-09-08T20:57:00.833Z,18.94
2023-09-08T21:02:09.968Z,18.88
2023-09-08T21:07:13.390Z,18.87
2023-09-08T21:12:21.476Z,18.76
2023-09-08T21:17:27.437Z,18.67
2023-09-08T21:22:33.535Z,18.67
2023-09-08T21:27:38.630Z,18.57
2023-09-08T21:32:53.015Z,18.55
2023-09-08T21:38:07.199Z,18.54
2023-09-08T21:43:26.779Z,18.52
2023-09-08T21:48:46.517Z,18.46
2023-09-08T21:53:58.574Z,18.37
2023-09-08T21:59:03.060Z,18.29
2023-09-08T22:04:08.253Z,18.27
2023-09-08T22:09:13.268Z,18.19
2023-09-08T22:14:17.009Z,18.22
2023-09-08T22:19:35.622Z,18.17
2023-09-08T22:24:45.323Z,18.12
2023-09-08T22:29:53.150Z,18.03
2023-09-08T22:34:59.999Z,18.07
2023-09-08T22:40:08.895Z,18.05
2023-09-08T22:45:12.852Z,17.94
2023-09-08T22:50:26.301Z,17.93
2023-09-08T22:55:32.398Z,17.75
2023-09-08T23:00:44.023Z,17.92
2023-09-08T23:05:51.974Z,17.87
2023-09-08T23:10:59.635Z,17.85
2023-09-08T23:16:06.648Z,17.76
2023-09-08T23:21:11.208Z,17.72
2023-09-08T23:26:14.712Z,17.53
2023-09-08T23:31:19.023Z,17.47
2023-09-08T23:36:30.662Z,17.54
2023-09-08T23:41:39.138Z,17.39
2023-09-08T23:46:43.526Z,17.33
2023-09-08T23:51:48.933Z,17.38
2023-09-08T23:56:53.548Z,17.42
